Time;durP1;ratioP1;P1;durP2;ratioP2;P2;SDS_P1;SDS_P2;PMS_P1;PMS_P2;Temp;Humidity;BMP_temperature;BMP_pressure;BME280_temperature;BME280_humidity;BME280_pressure;Samples;Min_cycle;Max_cycle;Signal;HPM_P1;HPM_P2
2022/01/15 00:01:04;;;;;;;29.23;11.93;;;7.10;99.90;;;;;;4991362;28;20034;-64
2022/01/15 00:03:30;;;;;;;26.45;11.88;;;7.00;99.90;;;;;;4991000;28;20041;-64
2022/01/15 00:05:56;;;;;;;32.17;13.27;;;7.10;99.90;;;;;;4991248;28;20086;-64
2022/01/15 00:08:22;;;;;;;37.42;13.90;;;7.10;99.90;;;;;;4991649;28;20046;-64
2022/01/15 00:10:48;;;;;;;35.55;13.68;;;7.10;99.90;;;;;;4991415;28;20394;-64
2022/01/15 00:13:24;;;;;;;33.97;12.88;;;7.10;99.90;;;;;;4991054;28;20524;-64
2022/01/15 00:16:01;;;;;;;32.05;12.52;;;7.10;99.90;;;;;;4991192;28;20046;-64
2022/01/15 00:18:40;;;;;;;26.33;11.52;;;7.00;99.90;;;;;;5006187;28;20049;-64
2022/01/15 00:21:05;;;;;;;22.92;10.45;;;7.00;99.90;;;;;;4989868;28;20054;-64
2022/01/15 00:23:31;;;;;;;24.17;10.00;;;7.00;99.90;;;;;;5005796;28;20389;-64
2022/01/15 00:25:56;;;;;;;24.92;10.77;;;7.00;99.90;;;;;;4991153;28;20034;-64
2022/01/15 00:28:22;;;;;;;25.58;10.20;;;7.10;99.90;;;;;;4990321;28;20038;-64
2022/01/15 00:30:47;;;;;;;28.45;11.13;;;7.10;99.90;;;;;;4990873;28;20042;-64
2022/01/15 00:33:13;;;;;;;24.70;10.05;;;7.10;99.90;;;;;;4990512;28;20062;-64
2022/01/15 00:35:38;;;;;;;28.98;11.13;;;7.10;99.90;;;;;;5005919;28;20050;-64
2022/01/15 00:38:04;;;;;;;29.33;11.13;;;7.00;99.90;;;;;;4990943;28;20026;-64
2022/01/15 00:40:29;;;;;;;23.67;9.65;;;7.00;99.90;;;;;;4991001;28;20606;-64
2022/01/15 00:42:55;;;;;;;30.98;11.73;;;7.10;99.90;;;;;;4990504;28;20042;-64
2022/01/15 00:45:22;;;;;;;30.95;11.48;;;7.10;99.90;;;;;;4990642;28;20438;-64
2022/01/15 00:47:49;;;;;;;38.10;13.05;;;7.10;99.90;;;;;;4990870;28;20050;-64
2022/01/15 00:50:15;;;;;;;33.60;12.77;;;7.10;99.90;;;;;;4990991;28;20042;-64
2022/01/15 00:52:42;;;;;;;34.28;12.80;;;7.00;99.90;;;;;;4989194;28;20042;-64
2022/01/15 00:55:08;;;;;;;36.45;13.07;;;7.10;99.90;;;;;;4990678;28;20053;-64
2022/01/15 00:57:34;;;;;;;36.63;12.75;;;7.00;99.90;;;;;;4990558;28;20043;-64
2022/01/15 00:59:59;;;;;;;28.20;11.65;;;7.00;99.90;;;;;;4990555;28;20047;-64
2022/01/15 01:02:25;;;;;;;32.22;12.48;;;7.00;99.90;;;;;;4990465;28;20813;-64
2022/01/15 01:04:51;;;;;;;34.63;13.20;;;7.00;99.90;;;;;;4990633;28;20042;-64
2022/01/15 01:07:17;;;;;;;33.65;13.00;;;7.00;99.90;;;;;;4990512;28;20049;-64
2022/01/15 01:10:04;;;;;;;41.58;13.27;;;7.00;99.90;;;;;;5005876;28;20046;-64
2022/01/15 01:21:12;;;;;;;39.15;11.73;;;6.90;99.90;;;;;;4990493;28;20129;-64
2022/01/15 01:23:38;;;;;;;35.77;12.03;;;6.90;99.90;;;;;;4989949;28;20054;-64
2022/01/15 01:26:10;;;;;;;34.03;12.25;;;6.90;99.90;;;;;;4990381;28;20042;-64
2022/01/15 01:28:41;;;;;;;35.17;12.18;;;6.90;99.90;;;;;;4990347;28;20042;-64
2022/01/15 01:31:16;;;;;;;38.35;11.35;;;6.90;99.90;;;;;;4989217;28;20039;-64
2022/01/15 01:33:46;;;;;;;33.33;11.68;;;6.90;99.90;;;;;;5004897;28;20073;-64
2022/01/15 01:39:04;;;;;;;39.13;12.45;;;6.90;99.90;;;;;;4990315;28;20042;-64
2022/01/15 01:41:24;;;;;;;35.33;11.88;;;6.90;99.90;;;;;;4992349;28;20133;-64
2022/01/15 01:44:16;;;;;;;28.35;11.73;;;6.90;99.90;;;;;;4993520;28;20425;-64
2022/01/15 01:46:49;;;;;;;29.48;11.45;;;6.90;99.90;;;;;;4993834;28;20112;-64
2022/01/15 01:49:15;;;;;;;40.03;11.93;;;6.90;99.90;;;;;;5008970;28;20054;-64
2022/01/15 01:51:42;;;;;;;25.05;11.10;;;6.90;99.90;;;;;;5009310;28;20054;-64
2022/01/15 01:54:10;;;;;;;28.48;11.82;;;6.90;99.90;;;;;;4993540;28;20050;-64
2022/01/15 01:56:37;;;;;;;27.10;11.73;;;6.90;99.90;;;;;;4993875;28;20086;-64
2022/01/15 01:59:04;;;;;;;29.38;11.20;;;7.00;99.90;;;;;;5008766;28;20057;-64
2022/01/15 02:01:29;;;;;;;27.73;11.13;;;7.00;99.90;;;;;;4993833;28;20077;-64
2022/01/15 02:03:55;;;;;;;28.02;10.95;;;7.00;99.90;;;;;;4993389;28;20042;-64
2022/01/15 02:06:21;;;;;;;28.35;11.52;;;7.00;99.90;;;;;;4993535;28;20045;-64
2022/01/15 02:08:48;;;;;;;28.15;10.98;;;7.00;99.90;;;;;;5008506;28;20042;-64
2022/01/15 02:11:14;;;;;;;23.65;11.43;;;7.00;99.90;;;;;;4993460;28;20038;-64
2022/01/15 02:13:42;;;;;;;25.85;10.07;;;7.00;99.90;;;;;;5008626;28;20042;-64
2022/01/15 02:16:08;;;;;;;24.27;10.48;;;7.00;99.90;;;;;;4993535;28;20707;-64
2022/01/15 02:18:35;;;;;;;21.25;9.65;;;7.00;99.90;;;;;;4993373;28;20426;-64
2022/01/15 02:23:34;;;;;;;13.65;6.07;;;7.00;99.90;;;;;;4993005;28;20121;-64
2022/01/15 02:26:06;;;;;;;7.80;4.20;;;7.00;99.90;;;;;;4991874;28;20050;-64
2022/01/15 02:28:34;;;;;;;8.30;4.35;;;6.90;99.90;;;;;;4992075;28;20050;-64
2022/01/15 02:31:02;;;;;;;7.80;3.97;;;6.90;99.90;;;;;;4993134;28;20046;-64
2022/01/15 02:33:29;;;;;;;7.30;3.78;;;6.90;99.90;;;;;;4992859;28;20070;-64
2022/01/15 02:35:55;;;;;;;7.65;4.00;;;6.90;99.90;;;;;;4992911;28;20042;-64
2022/01/15 02:38:21;;;;;;;7.68;4.15;;;7.00;99.90;;;;;;4991666;28;20109;-64
2022/01/15 02:40:47;;;;;;;9.38;4.93;;;6.90;99.90;;;;;;4993084;28;20050;-64
2022/01/15 02:43:18;;;;;;;9.13;4.80;;;7.00;99.90;;;;;;4992725;28;20049;-64
2022/01/15 02:45:55;;;;;;;7.68;3.92;;;7.00;99.90;;;;;;4992987;28;20104;-64
2022/01/15 02:48:23;;;;;;;6.70;4.03;;;7.00;99.90;;;;;;4992775;28;20069;-64
2022/01/15 02:50:49;;;;;;;6.95;3.85;;;7.00;99.90;;;;;;4992530;28;20058;-64
2022/01/15 02:53:18;;;;;;;7.47;3.60;;;6.90;99.90;;;;;;4992048;28;20038;-64
2022/01/15 02:55:46;;;;;;;6.32;3.50;;;6.90;99.90;;;;;;4991755;28;20045;-64
2022/01/15 02:58:12;;;;;;;6.57;3.63;;;6.90;99.90;;;;;;4992611;28;20376;-64
2022/01/15 03:00:37;;;;;;;7.00;3.67;;;6.90;99.90;;;;;;4991271;28;20081;-64
2022/01/15 03:03:03;;;;;;;6.80;3.55;;;6.90;99.90;;;;;;4990984;28;20069;-64
2022/01/15 03:05:29;;;;;;;6.70;3.78;;;7.00;99.90;;;;;;4992688;28;20035;-64
2022/01/15 03:07:55;;;;;;;5.93;3.38;;;6.90;99.90;;;;;;4992421;28;20050;-64
2022/01/15 03:10:20;;;;;;;5.07;2.88;;;7.00;99.90;;;;;;4992575;28;20038;-64
2022/01/15 03:12:46;;;;;;;6.75;3.38;;;7.00;99.90;;;;;;4992168;28;20130;-64
2022/01/15 03:15:17;;;;;;;7.20;3.70;;;6.90;99.90;;;;;;4992503;28;20113;-64
2022/01/15 03:17:43;;;;;;;5.85;3.30;;;6.90;99.90;;;;;;4992116;28;20038;-64
2022/01/15 03:20:09;;;;;;;5.68;3.40;;;7.00;99.90;;;;;;4991252;28;20093;-64
2022/01/15 03:22:35;;;;;;;5.85;3.13;;;7.00;99.90;;;;;;4992028;28;20038;-64
2022/01/15 03:25:00;;;;;;;5.97;3.20;;;7.00;99.90;;;;;;4992398;28;20030;-64
2022/01/15 03:27:26;;;;;;;5.47;3.30;;;7.00;99.90;;;;;;4992099;28;20588;-64
2022/01/15 03:29:51;;;;;;;5.75;3.22;;;7.00;99.90;;;;;;4992006;28;20053;-64
2022/01/15 03:32:18;;;;;;;6.75;3.25;;;7.00;99.90;;;;;;4991600;28;20123;-64
2022/01/15 03:34:44;;;;;;;6.32;3.63;;;6.90;99.90;;;;;;4990697;28;20519;-64
2022/01/15 03:37:09;;;;;;;5.90;3.60;;;6.90;99.90;;;;;;4991970;28;20177;-64
2022/01/15 03:39:35;;;;;;;6.78;3.70;;;7.00;99.90;;;;;;4991801;28;20065;-64
2022/01/15 03:42:02;;;;;;;9.73;4.05;;;6.90;99.90;;;;;;4991640;28;20045;-64
2022/01/15 03:44:27;;;;;;;6.60;3.53;;;7.00;99.90;;;;;;4990713;28;20053;-64
2022/01/15 03:46:53;;;;;;;6.93;3.75;;;7.00;99.90;;;;;;4991710;28;20043;-64
2022/01/15 03:49:19;;;;;;;6.82;3.88;;;7.00;99.90;;;;;;4991667;28;20049;-64
2022/01/15 03:51:44;;;;;;;7.75;4.13;;;6.90;99.90;;;;;;4991772;28;20038;-64
2022/01/15 03:54:10;;;;;;;8.82;4.25;;;6.90;99.90;;;;;;4991706;28;20034;-64
2022/01/15 03:56:35;;;;;;;7.10;3.67;;;6.90;99.90;;;;;;4991521;28;20407;-64
2022/01/15 03:59:01;;;;;;;8.20;4.25;;;6.90;99.90;;;;;;4991488;28;20046;-64
2022/01/15 04:01:26;;;;;;;6.88;3.42;;;6.90;99.90;;;;;;4991283;28;20516;-64
2022/01/15 04:03:52;;;;;;;8.63;4.03;;;6.80;99.90;;;;;;4991162;28;20453;-64
2022/01/15 04:06:17;;;;;;;7.95;3.70;;;6.90;99.90;;;;;;4990265;28;20594;-64
2022/01/15 04:08:43;;;;;;;7.32;3.72;;;6.80;99.90;;;;;;4991527;28;20121;-64
2022/01/15 04:11:08;;;;;;;8.73;3.90;;;6.80;99.90;;;;;;4991270;28;20486;-64
2022/01/15 04:13:34;;;;;;;7.20;3.80;;;6.80;99.90;;;;;;4990996;28;20056;-64
2022/01/15 04:16:00;;;;;;;7.32;3.97;;;6.80;99.90;;;;;;4991192;28;20042;-64
2022/01/15 04:18:28;;;;;;;7.22;4.15;;;6.80;99.90;;;;;;4991261;28;20050;-64
2022/01/15 04:20:56;;;;;;;10.38;4.55;;;6.80;99.90;;;;;;4991241;28;20042;-64
2022/01/15 04:23:22;;;;;;;10.88;5.40;;;6.80;99.90;;;;;;4990932;28;20042;-64
2022/01/15 04:25:47;;;;;;;11.07;6.13;;;6.80;99.90;;;;;;4991136;28;20091;-64
2022/01/15 04:28:13;;;;;;;14.32;6.38;;;6.80;99.90;;;;;;4991119;28;20105;-64
2022/01/15 04:30:40;;;;;;;13.88;6.18;;;6.80;99.90;;;;;;4990768;28;20034;-64
2022/01/15 04:33:06;;;;;;;15.52;6.20;;;6.80;99.90;;;;;;4990473;28;20038;-64
2022/01/15 04:38:04;;;;;;;14.82;7.15;;;6.80;99.90;;;;;;5046300;23;20053;-64
2022/01/15 04:40:31;;;;;;;15.18;7.55;;;6.80;99.90;;;;;;5009445;28;20116;-64
2022/01/15 04:42:56;;;;;;;19.65;8.55;;;6.80;99.90;;;;;;5009590;28;20733;-64
2022/01/15 04:45:22;;;;;;;18.00;8.65;;;6.80;99.90;;;;;;5010208;28;20175;-64
2022/01/15 04:47:47;;;;;;;17.88;8.40;;;6.80;99.90;;;;;;5009919;28;20049;-64
2022/01/15 04:50:16;;;;;;;16.58;8.27;;;6.80;99.90;;;;;;5008846;28;20041;-64
2022/01/15 04:52:42;;;;;;;17.17;8.20;;;6.80;99.90;;;;;;5010114;28;20046;-64
2022/01/15 04:55:10;;;;;;;15.15;7.65;;;6.90;99.90;;;;;;5010140;28;20042;-64
2022/01/15 04:57:36;;;;;;;16.42;7.40;;;6.80;99.90;;;;;;5008797;28;20045;-64
2022/01/15 05:00:06;;;;;;;16.00;7.22;;;6.80;99.90;;;;;;5010389;28;20045;-64
2022/01/15 05:02:32;;;;;;;18.77;7.28;;;6.70;99.90;;;;;;5010010;28;20067;-64
2022/01/15 05:04:57;;;;;;;15.73;7.13;;;6.70;99.90;;;;;;5008810;28;20100;-64
2022/01/15 05:07:23;;;;;;;18.55;8.10;;;6.70;99.90;;;;;;5010222;28;20038;-64
2022/01/15 05:09:49;;;;;;;19.90;7.85;;;6.70;99.90;;;;;;5010123;28;20041;-64
2022/01/15 05:12:49;;;;;;;17.85;8.20;;;6.60;99.90;;;;;;5008438;28;20041;-64
2022/01/15 05:15:07;;;;;;;19.50;8.20;;;6.60;99.90;;;;;;5009989;28;20100;-64
2022/01/15 05:17:32;;;;;;;19.77;8.50;;;6.60;99.90;;;;;;5016511;28;20081;-64
2022/01/15 05:19:58;;;;;;;23.00;9.68;;;6.60;99.90;;;;;;5016636;28;20081;-64
2022/01/15 05:22:24;;;;;;;19.35;8.32;;;6.60;99.90;;;;;;5016337;28;20038;-64
2022/01/15 05:24:49;;;;;;;22.33;9.25;;;6.60;99.90;;;;;;5016419;28;20041;-64
2022/01/15 05:27:15;;;;;;;21.25;9.20;;;6.60;99.90;;;;;;5015059;28;20045;-64
2022/01/15 05:29:41;;;;;;;19.73;8.80;;;6.50;99.90;;;;;;5016661;28;20037;-64
2022/01/15 05:32:07;;;;;;;17.25;8.00;;;6.50;99.90;;;;;;5016472;28;20041;-64
2022/01/15 05:34:33;;;;;;;17.95;8.13;;;6.50;99.90;;;;;;5016191;28;20132;-64
2022/01/15 05:36:58;;;;;;;18.52;8.18;;;6.50;99.90;;;;;;5016055;28;20124;-64
2022/01/15 05:39:24;;;;;;;16.00;7.93;;;6.50;99.90;;;;;;5016154;28;20417;-64
2022/01/15 05:41:49;;;;;;;16.80;7.47;;;6.50;99.90;;;;;;5016432;28;20034;-64
2022/01/15 05:44:15;;;;;;;16.55;7.78;;;6.50;99.90;;;;;;5013162;28;20041;-64
2022/01/15 05:46:41;;;;;;;15.75;7.55;;;6.50;99.90;;;;;;5013116;28;20537;-64
2022/01/15 05:49:06;;;;;;;15.52;7.43;;;6.50;99.90;;;;;;5012322;28;20054;-64
2022/01/15 05:51:32;;;;;;;17.58;7.95;;;6.50;99.90;;;;;;5013085;28;20558;-64
2022/01/15 05:54:03;;;;;;;15.05;7.15;;;6.50;99.90;;;;;;5012752;28;20061;-64
2022/01/15 05:56:29;;;;;;;13.35;7.10;;;6.50;99.90;;;;;;5012853;28;20088;-64
2022/01/15 05:58:55;;;;;;;13.30;6.60;;;6.50;99.90;;;;;;5013235;28;20042;-64
2022/01/15 06:01:21;;;;;;;14.98;6.95;;;6.50;99.90;;;;;;5013281;28;20042;-64
2022/01/15 06:03:47;;;;;;;14.38;6.90;;;6.50;99.90;;;;;;5013142;28;20557;-64
2022/01/15 06:06:13;;;;;;;12.70;6.50;;;6.50;99.90;;;;;;5012909;28;20129;-64
2022/01/15 06:08:38;;;;;;;16.00;6.90;;;6.50;99.90;;;;;;5012670;28;20041;-65
2022/01/15 06:11:04;;;;;;;15.70;6.82;;;6.50;99.90;;;;;;5013246;28;20089;-64
2022/01/15 06:13:29;;;;;;;13.80;6.95;;;6.50;99.90;;;;;;5012965;28;20042;-64
2022/01/15 06:15:55;;;;;;;12.30;6.20;;;6.60;99.90;;;;;;5012919;28;20037;-64
2022/01/15 06:18:20;;;;;;;11.82;6.32;;;6.60;99.90;;;;;;5012805;28;20057;-64
2022/01/15 06:20:46;;;;;;;12.65;6.72;;;6.60;99.90;;;;;;5011271;28;20556;-64
2022/01/15 06:23:11;;;;;;;12.82;6.75;;;6.60;99.90;;;;;;5012651;28;20044;-64
2022/01/15 06:25:37;;;;;;;13.75;7.20;;;6.60;99.90;;;;;;5012379;28;20042;-64
2022/01/15 06:28:03;;;;;;;14.88;7.45;;;6.60;99.90;;;;;;5009785;28;20042;-64
2022/01/15 06:30:28;;;;;;;14.68;7.22;;;6.60;99.90;;;;;;5009895;28;20034;-65
2022/01/15 06:32:54;;;;;;;15.60;7.20;;;6.60;99.90;;;;;;5009360;28;20557;-64
2022/01/15 06:35:20;;;;;;;14.73;7.47;;;6.60;99.90;;;;;;5009606;28;20046;-62
2022/01/15 06:37:47;;;;;;;12.80;6.63;;;6.60;99.90;;;;;;5009130;28;20057;-65
2022/01/15 06:40:15;;;;;;;14.25;7.30;;;6.60;99.90;;;;;;5008196;28;20061;-63
2022/01/15 06:42:41;;;;;;;14.80;6.93;;;6.60;99.90;;;;;;5009716;28;20034;-63
2022/01/15 06:45:07;;;;;;;10.75;5.72;;;6.60;99.90;;;;;;5009640;28;20092;-63
2022/01/15 06:47:33;;;;;;;12.43;6.18;;;6.60;99.90;;;;;;5011138;28;20034;-63
2022/01/15 06:49:58;;;;;;;12.07;5.88;;;6.60;99.90;;;;;;5011066;28;20405;-62
2022/01/15 06:52:24;;;;;;;12.35;6.20;;;6.60;99.90;;;;;;5011709;28;20720;-61
2022/01/15 06:54:50;;;;;;;10.43;5.68;;;6.50;99.90;;;;;;5012568;28;20041;-65
2022/01/15 06:57:16;;;;;;;12.57;6.43;;;6.60;99.90;;;;;;5012634;28;20049;-64
2022/01/15 06:59:44;;;;;;;12.10;6.55;;;6.50;99.90;;;;;;5012327;28;20038;-64
2022/01/15 07:02:11;;;;;;;12.07;5.80;;;6.60;99.90;;;;;;5010945;28;20050;-64
2022/01/15 07:04:37;;;;;;;12.98;6.45;;;6.50;99.90;;;;;;5011977;28;20038;-64
2022/01/15 07:07:03;;;;;;;11.45;6.25;;;6.60;99.90;;;;;;5011992;28;20103;-64
2022/01/15 07:09:28;;;;;;;12.63;6.63;;;6.50;99.90;;;;;;5012108;28;20037;-65
2022/01/15 07:11:54;;;;;;;15.82;6.20;;;6.50;99.90;;;;;;5012430;28;20100;-65
2022/01/15 07:14:19;;;;;;;12.43;5.97;;;6.50;99.90;;;;;;5011866;28;20037;-64
2022/01/15 07:16:45;;;;;;;12.30;6.25;;;6.50;99.90;;;;;;5011766;28;20069;-64
2022/01/15 07:19:10;;;;;;;13.75;6.32;;;6.50;99.90;;;;;;5011743;28;20038;-66
2022/01/15 07:21:36;;;;;;;12.35;6.90;;;6.50;99.90;;;;;;5011984;28;20048;-64
2022/01/15 07:24:02;;;;;;;16.60;8.02;;;6.50;99.90;;;;;;5011774;28;20060;-64
2022/01/15 07:26:28;;;;;;;14.20;7.45;;;6.40;99.90;;;;;;5012041;28;20591;-65
2022/01/15 07:28:53;;;;;;;16.63;7.70;;;6.40;99.90;;;;;;5012037;28;20042;-65
2022/01/15 07:31:19;;;;;;;15.90;8.77;;;6.40;99.90;;;;;;5010569;28;20049;-63
2022/01/15 07:33:44;;;;;;;17.48;9.00;;;6.30;99.90;;;;;;5011527;28;20379;-63
2022/01/15 07:36:12;;;;;;;21.00;9.73;;;6.30;99.90;;;;;;5011229;28;20095;-64
2022/01/15 07:38:37;;;;;;;20.83;9.77;;;6.30;99.90;;;;;;5011022;28;20045;-64
2022/01/15 07:41:04;;;;;;;17.90;9.13;;;6.20;99.90;;;;;;5011497;28;20042;-63
2022/01/15 07:43:30;;;;;;;15.40;7.80;;;6.20;99.90;;;;;;5011326;28;20073;-63
2022/01/15 07:45:56;;;;;;;16.08;8.23;;;6.20;99.90;;;;;;5011389;28;20498;-63
2022/01/15 07:48:22;;;;;;;15.50;7.65;;;6.20;99.90;;;;;;5011106;28;20044;-63
2022/01/15 07:50:48;;;;;;;14.05;7.25;;;6.20;99.90;;;;;;5011433;28;20044;-63
2022/01/15 07:53:13;;;;;;;15.55;7.63;;;6.10;99.90;;;;;;5011159;28;20044;-64
2022/01/15 07:55:39;;;;;;;19.77;8.80;;;6.10;99.90;;;;;;5010310;28;20136;-65
2022/01/15 07:58:04;;;;;;;16.20;7.15;;;6.10;99.90;;;;;;5011102;28;20383;-64
2022/01/15 08:00:30;;;;;;;15.25;7.28;;;6.10;99.90;;;;;;5002332;28;20446;-65
2022/01/15 08:02:57;;;;;;;13.57;6.05;;;6.10;99.90;;;;;;4999187;28;20042;-64
2022/01/15 08:05:22;;;;;;;14.60;6.97;;;6.10;99.90;;;;;;4989554;28;20576;-64
2022/01/15 08:07:48;;;;;;;14.57;7.25;;;6.10;99.90;;;;;;5005365;28;20126;-64
2022/01/15 08:10:14;;;;;;;15.88;6.75;;;6.10;99.90;;;;;;5010912;28;20034;-64
2022/01/15 08:12:44;;;;;;;15.02;7.25;;;6.10;99.90;;;;;;5010772;28;20487;-64
2022/01/15 08:15:10;;;;;;;16.08;7.28;;;6.10;99.90;;;;;;5010832;28;20121;-65
2022/01/15 08:17:35;;;;;;;17.13;7.45;;;6.10;99.90;;;;;;5010405;28;20125;-64
2022/01/15 08:20:01;;;;;;;19.25;8.07;;;6.10;99.90;;;;;;5004339;28;20034;-64
2022/01/15 08:22:27;;;;;;;15.75;7.30;;;6.10;99.90;;;;;;4991147;28;20053;-64
2022/01/15 08:24:52;;;;;;;16.08;7.88;;;6.10;99.90;;;;;;4991295;28;20038;-65
2022/01/15 08:27:18;;;;;;;19.67;8.13;;;6.10;99.90;;;;;;4990828;28;20081;-64
2022/01/15 08:29:43;;;;;;;20.15;8.80;;;6.10;99.90;;;;;;4990875;28;20073;-64
2022/01/15 08:32:09;;;;;;;20.00;8.48;;;6.10;99.90;;;;;;4989340;28;20053;-64
2022/01/15 08:34:34;;;;;;;19.33;8.48;;;6.10;99.90;;;;;;4989552;28;20046;-65
2022/01/15 08:37:00;;;;;;;20.67;9.20;;;6.10;99.90;;;;;;4990640;28;20045;-64
2022/01/15 08:39:25;;;;;;;22.00;9.55;;;6.10;99.90;;;;;;4990959;28;20034;-65
2022/01/15 08:41:51;;;;;;;21.58;10.00;;;6.00;99.90;;;;;;4990761;28;20451;-63
2022/01/15 08:44:23;;;;;;;21.23;9.73;;;6.10;99.90;;;;;;4990697;28;20030;-64
2022/01/15 08:46:50;;;;;;;19.88;9.32;;;6.00;99.90;;;;;;4989672;28;20133;-63
2022/01/15 08:49:16;;;;;;;23.50;10.15;;;6.00;99.90;;;;;;4990036;28;20402;-64
2022/01/15 08:51:42;;;;;;;23.45;10.15;;;6.00;99.90;;;;;;4990801;28;20674;-63
2022/01/15 08:54:07;;;;;;;22.80;10.60;;;6.10;99.90;;;;;;4990407;28;20069;-63
2022/01/15 08:56:34;;;;;;;24.20;9.93;;;6.10;99.90;;;;;;4990639;28;20046;-63
2022/01/15 08:59:03;;;;;;;20.48;9.43;;;6.10;99.90;;;;;;4990579;28;20399;-63
2022/01/15 09:01:29;;;;;;;22.95;10.27;;;6.10;99.90;;;;;;4989098;28;20050;-63
2022/01/15 09:03:55;;;;;;;32.15;15.60;;;6.10;99.90;;;;;;4990341;28;20049;-64
2022/01/15 09:06:21;;;;;;;20.15;9.38;;;6.10;99.90;;;;;;4990767;28;20082;-63
2022/01/15 09:08:47;;;;;;;21.58;9.85;;;6.10;99.90;;;;;;4990403;28;20049;-62
2022/01/15 09:11:13;;;;;;;21.25;9.90;;;6.10;99.90;;;;;;4989360;28;20045;-63
2022/01/15 09:13:40;;;;;;;20.98;8.88;;;6.00;99.90;;;;;;4989972;28;20627;-63
2022/01/15 09:16:06;;;;;;;20.40;9.32;;;6.00;99.90;;;;;;4990183;28;20129;-63
2022/01/15 09:18:31;;;;;;;18.00;8.48;;;6.00;99.90;;;;;;4990360;28;20117;-63
2022/01/15 09:20:57;;;;;;;17.67;8.45;;;6.00;99.90;;;;;;4990024;28;20118;-63
2022/01/15 09:23:23;;;;;;;15.90;7.43;;;5.90;99.90;;;;;;4988146;28;20089;-63
2022/01/15 09:25:50;;;;;;;19.77;8.82;;;5.90;99.90;;;;;;4990194;28;20065;-64
2022/01/15 09:30:59;;;;;;;16.98;8.32;;;5.90;99.90;;;;;;4990321;28;20097;-64
2022/01/15 09:33:25;;;;;;;17.80;8.88;;;5.90;99.90;;;;;;4988924;28;20038;-64
2022/01/15 09:35:51;;;;;;;18.55;8.57;;;5.90;99.90;;;;;;4988595;28;20050;-63
2022/01/15 09:38:17;;;;;;;19.45;8.85;;;5.90;99.90;;;;;;4990380;28;20030;-63
2022/01/15 09:40:43;;;;;;;16.85;8.57;;;5.90;99.90;;;;;;4989896;28;20454;-63
2022/01/15 09:43:10;;;;;;;19.08;8.55;;;5.90;99.90;;;;;;4989662;28;20042;-64
2022/01/15 09:45:36;;;;;;;17.02;8.15;;;6.00;99.90;;;;;;4988748;28;20042;-64
2022/01/15 09:48:04;;;;;;;18.75;9.18;;;6.10;99.90;;;;;;4990384;28;20050;-64
2022/01/15 09:50:33;;;;;;;18.10;9.13;;;6.00;99.90;;;;;;4990238;28;20049;-64
2022/01/15 09:52:59;;;;;;;18.67;9.30;;;6.00;99.90;;;;;;4989607;28;20502;-63
2022/01/15 09:55:26;;;;;;;21.55;10.60;;;6.00;99.90;;;;;;4989618;28;20038;-63
2022/01/15 09:57:53;;;;;;;20.35;10.25;;;6.00;99.90;;;;;;4988823;28;20070;-63
2022/01/15 10:00:20;;;;;;;22.00;11.00;;;6.00;99.90;;;;;;4988913;28;20104;-63
2022/01/15 10:02:47;;;;;;;19.88;9.88;;;6.00;99.90;;;;;;4992127;28;20043;-63
2022/01/15 10:05:14;;;;;;;21.63;11.18;;;6.00;99.90;;;;;;4993533;28;20038;-63
2022/01/15 10:08:01;;;;;;;22.85;10.60;;;5.90;99.90;;;;;;4993559;28;20422;-63
2022/01/15 10:10:30;;;;;;;22.75;10.82;;;5.90;99.90;;;;;;4992529;28;20073;-63
2022/01/15 10:13:09;;;;;;;20.35;10.90;;;5.90;99.90;;;;;;4993522;28;20100;-64
2022/01/15 10:15:35;;;;;;;22.83;11.98;;;6.00;99.90;;;;;;4993511;28;20081;-64
2022/01/15 10:18:00;;;;;;;24.83;11.40;;;6.00;99.90;;;;;;4993415;28;20081;-63
2022/01/15 10:20:34;;;;;;;25.67;11.77;;;6.00;99.90;;;;;;4993108;28;20038;-63
2022/01/15 10:23:01;;;;;;;22.20;11.27;;;6.10;99.90;;;;;;4991463;28;20092;-63
2022/01/15 10:25:26;;;;;;;24.00;12.13;;;6.10;99.90;;;;;;4990101;28;20657;-63
2022/01/15 10:27:54;;;;;;;23.50;11.90;;;6.10;99.90;;;;;;4990633;28;20129;-64
2022/01/15 10:30:24;;;;;;;20.83;11.30;;;6.20;99.90;;;;;;4991613;28;20050;-63
2022/01/15 10:32:59;;;;;;;20.88;10.60;;;6.20;99.90;;;;;;4991048;28;20140;-63
2022/01/15 10:35:33;;;;;;;23.88;11.98;;;6.20;99.90;;;;;;4991841;28;20034;-63
2022/01/15 10:38:01;;;;;;;22.27;11.00;;;6.10;99.90;;;;;;5015923;23;20140;-64
2022/01/15 10:40:37;;;;;;;22.67;11.63;;;6.10;99.90;;;;;;5012697;28;20042;-64
2022/01/15 10:43:03;;;;;;;23.85;11.73;;;6.00;99.90;;;;;;5012384;28;20037;-64
2022/01/15 10:45:31;;;;;;;24.08;12.10;;;6.10;99.90;;;;;;5012123;28;20735;-64
2022/01/15 10:48:00;;;;;;;28.20;12.98;;;6.10;99.90;;;;;;5012144;28;20405;-64
2022/01/15 10:50:35;;;;;;;25.92;12.75;;;6.20;99.90;;;;;;5012669;28;20485;-64
2022/01/15 10:53:12;;;;;;;26.77;12.57;;;6.30;99.90;;;;;;5012316;28;20038;-63
2022/01/15 10:55:40;;;;;;;23.42;12.88;;;6.30;99.90;;;;;;5012398;28;20069;-63
2022/01/15 10:58:11;;;;;;;26.38;12.68;;;6.30;99.90;;;;;;5011912;28;20034;-62
2022/01/15 11:00:36;;;;;;;25.58;12.95;;;6.30;99.90;;;;;;5012584;28;20037;-63
2022/01/15 11:03:08;;;;;;;27.15;13.55;;;6.40;99.90;;;;;;5011998;28;20053;-63
2022/01/15 11:05:42;;;;;;;28.80;14.07;;;6.30;99.90;;;;;;5012059;28;20501;-64
2022/01/15 11:08:16;;;;;;;24.52;13.25;;;6.40;99.90;;;;;;5012096;28;20045;-64
2022/01/15 11:10:43;;;;;;;28.45;14.48;;;6.40;99.90;;;;;;5012033;28;20092;-65
2022/01/15 11:13:12;;;;;;;27.73;15.23;;;6.30;99.90;;;;;;5011069;28;20052;-64
2022/01/15 11:15:39;;;;;;;27.45;14.73;;;6.30;99.90;;;;;;5012031;28;20042;-64
2022/01/15 11:18:05;;;;;;;26.40;13.73;;;6.30;99.90;;;;;;5011688;28;20129;-64
2022/01/15 11:20:33;;;;;;;26.98;14.07;;;6.30;99.90;;;;;;4994372;28;20049;-66
2022/01/15 11:23:02;;;;;;;24.58;12.27;;;6.30;99.90;;;;;;5011588;28;20042;-67
2022/01/15 11:25:29;;;;;;;25.25;12.50;;;6.30;99.90;;;;;;5011723;28;20042;-67
2022/01/15 11:27:57;;;;;;;24.50;12.25;;;6.30;99.90;;;;;;5011606;28;20514;-66
2022/01/15 11:30:23;;;;;;;24.98;13.13;;;6.40;99.90;;;;;;5011791;28;20073;-67
2022/01/15 11:32:48;;;;;;;26.95;13.48;;;6.40;99.90;;;;;;5010191;28;20054;-66
2022/01/15 11:35:14;;;;;;;24.25;12.30;;;6.40;99.90;;;;;;5011652;28;20088;-67
2022/01/15 11:37:43;;;;;;;27.00;13.02;;;6.30;99.90;;;;;;5011145;28;20092;-66
2022/01/15 11:40:39;;;;;;;22.48;11.48;;;6.30;99.90;;;;;;5011543;28;20053;-67
2022/01/15 11:43:24;;;;;;;27.23;13.15;;;6.30;99.90;;;;;;5009827;28;20077;-67
2022/01/15 11:45:54;;;;;;;27.90;14.35;;;6.30;99.90;;;;;;5011258;28;20510;-67
2022/01/15 11:48:25;;;;;;;28.92;14.70;;;6.30;99.90;;;;;;5011268;28;20092;-66
2022/01/15 11:51:13;;;;;;;29.35;15.10;;;6.30;99.90;;;;;;5010080;28;20042;-67
2022/01/15 11:53:48;;;;;;;27.48;14.40;;;6.30;99.90;;;;;;5011150;28;20041;-66
2022/01/15 11:56:19;;;;;;;29.08;14.18;;;6.30;99.90;;;;;;5002762;28;20545;-67
2022/01/15 11:58:45;;;;;;;27.10;14.27;;;6.20;99.90;;;;;;5007345;28;20685;-66
2022/01/15 12:01:36;;;;;;;27.55;14.02;;;6.20;99.90;;;;;;5010829;28;20048;-66
2022/01/15 12:04:23;;;;;;;31.45;14.98;;;6.10;99.90;;;;;;4996186;28;20469;-67
2022/01/15 12:07:01;;;;;;;32.45;16.42;;;6.10;99.90;;;;;;4978094;28;20057;-67
2022/01/15 12:09:37;;;;;;;31.67;16.02;;;6.10;99.90;;;;;;4991529;28;20117;-67
2022/01/15 12:12:40;;;;;;;32.25;15.43;;;6.10;99.90;;;;;;4996231;28;20038;-66
2022/01/15 12:15:09;;;;;;;29.67;14.52;;;6.20;99.90;;;;;;5000636;28;20047;-67
2022/01/15 12:17:51;;;;;;;29.10;14.75;;;6.20;99.90;;;;;;5000666;28;20050;-67
2022/01/15 12:20:17;;;;;;;28.02;14.18;;;6.20;99.90;;;;;;5000148;28;20108;-66
2022/01/15 12:22:50;;;;;;;25.98;14.27;;;6.30;99.90;;;;;;4998583;28;20550;-66
2022/01/15 12:25:19;;;;;;;28.88;14.00;;;6.30;99.90;;;;;;4998401;28;20111;-67
2022/01/15 12:27:47;;;;;;;28.75;15.07;;;6.30;99.90;;;;;;5003384;28;20053;-66
2022/01/15 12:30:17;;;;;;;31.90;16.27;;;6.40;99.90;;;;;;5009250;28;20603;-66
2022/01/15 12:32:47;;;;;;;31.02;15.80;;;6.30;99.90;;;;;;5010641;28;20087;-66
2022/01/15 12:35:18;;;;;;;28.92;14.50;;;6.30;99.90;;;;;;5009881;28;20128;-66
2022/01/15 12:37:54;;;;;;;28.42;14.70;;;6.20;99.90;;;;;;5010284;28;20436;-66
2022/01/15 12:40:22;;;;;;;28.98;14.13;;;6.10;99.90;;;;;;5009062;28;20883;-66
2022/01/15 12:43:25;;;;;;;31.80;15.07;;;6.10;99.90;;;;;;4991358;28;20065;-66
2022/01/15 12:46:03;;;;;;;68.70;33.33;;;6.10;99.90;;;;;;4975137;28;20077;-66
2022/01/15 12:48:31;;;;;;;31.50;15.57;;;6.00;99.90;;;;;;5009128;28;20444;-66
2022/01/15 12:50:59;;;;;;;34.33;17.15;;;6.00;99.90;;;;;;5010424;28;20063;-66
2022/01/15 12:53:28;;;;;;;31.95;15.63;;;6.00;99.90;;;;;;5008785;28;20129;-66
2022/01/15 12:55:54;;;;;;;32.42;15.90;;;6.00;99.90;;;;;;5010346;28;20465;-66
2022/01/15 12:58:22;;;;;;;34.22;15.85;;;6.00;99.90;;;;;;5010301;28;20537;-66
2022/01/15 13:00:49;;;;;;;36.45;16.55;;;5.90;99.90;;;;;;5009144;28;20122;-66
2022/01/15 13:03:20;;;;;;;35.33;16.63;;;5.90;99.90;;;;;;5009902;28;20038;-66
2022/01/15 13:05:50;;;;;;;38.00;17.58;;;5.90;99.90;;;;;;5010133;28;20416;-66